createdAt,value
2019-01-15T00:01:07.009Z,62.68
2019-01-15T00:03:36.386Z,63.19
2019-01-15T00:06:05.821Z,63.35
2019-01-15T00:08:35.155Z,62.79
2019-01-15T00:11:04.567Z,61.68
2019-01-15T00:13:33.938Z,60.34
2019-01-15T00:16:03.284Z,60.19
2019-01-15T00:18:32.672Z,59.67
2019-01-15T00:21:02.037Z,59.46
2019-01-15T00:23:31.407Z,58.89
2019-01-15T00:26:01.020Z,58.97
2019-01-15T00:28:30.405Z,58.66
2019-01-15T00:30:59.768Z,58.81
2019-01-15T00:33:29.120Z,57.34
2019-01-15T00:35:58.493Z,57.43
2019-01-15T00:38:27.868Z,57.39
2019-01-15T00:40:57.273Z,56.94
2019-01-15T00:43:27.195Z,56.79
2019-01-15T00:45:56.642Z,55.64
2019-01-15T00:48:25.984Z,55.68
2019-01-15T00:50:55.369Z,54.59
2019-01-15T00:53:24.784Z,53.90
2019-01-15T00:55:54.117Z,53.33
2019-01-15T00:58:23.579Z,52.70
2019-01-15T01:00:52.930Z,52.93
2019-01-15T01:03:22.319Z,52.49
2019-01-15T01:05:51.837Z,52.02
2019-01-15T01:08:21.182Z,50.93
2019-01-15T01:10:50.555Z,50.51
2019-01-15T01:13:19.936Z,50.34
2019-01-15T01:15:49.498Z,49.91
2019-01-15T01:18:18.953Z,49.74
2019-01-15T01:20:48.316Z,49.69
2019-01-15T01:23:17.734Z,49.67
2019-01-15T01:25:47.151Z,49.91
2019-01-15T01:28:16.561Z,50.06
2019-01-15T01:30:45.909Z,50.05
2019-01-15T01:33:15.242Z,50.00
2019-01-15T01:35:44.584Z,50.06
2019-01-15T01:38:13.960Z,50.07
2019-01-15T01:40:43.345Z,49.91
2019-01-15T01:43:12.745Z,49.95
2019-01-15T01:45:42.113Z,49.50
2019-01-15T01:48:11.504Z,49.31
2019-01-15T01:50:40.863Z,49.27
2019-01-15T01:53:10.242Z,49.62
2019-01-15T01:55:39.613Z,49.61
2019-01-15T01:58:08.989Z,50.09
2019-01-15T02:00:38.371Z,49.50
2019-01-15T02:03:07.763Z,49.49
2019-01-15T02:05:37.117Z,49.61
2019-01-15T02:08:06.466Z,49.57
2019-01-15T02:10:35.872Z,49.46
2019-01-15T02:13:05.266Z,49.59
2019-01-15T02:15:34.746Z,50.60
2019-01-15T02:18:04.178Z,50.77
2019-01-15T02:20:33.580Z,51.04
2019-01-15T02:23:03.062Z,51.20
2019-01-15T02:25:32.412Z,50.80
2019-01-15T02:28:01.796Z,50.94
2019-01-15T02:30:31.151Z,50.69
2019-01-15T02:33:00.500Z,50.08
2019-01-15T02:35:29.835Z,49.97
2019-01-15T02:37:59.178Z,50.29
2019-01-15T02:40:28.573Z,50.40
2019-01-15T02:42:57.942Z,50.86
2019-01-15T02:45:27.291Z,51.07
2019-01-15T02:47:56.653Z,51.71
2019-01-15T02:50:25.972Z,51.51
2019-01-15T02:52:55.376Z,51.68
2019-01-15T02:55:24.745Z,52.21
2019-01-15T02:57:54.101Z,52.39
2019-01-15T03:00:27.607Z,52.48
2019-01-15T03:02:56.978Z,53.05
2019-01-15T03:05:26.364Z,53.45
2019-01-15T03:07:55.714Z,53.15
2019-01-15T03:10:25.236Z,52.69
2019-01-15T03:12:56.345Z,52.87
2019-01-15T03:15:26.044Z,53.12
2019-01-15T03:17:55.528Z,52.97
2019-01-15T03:20:24.856Z,52.70
2019-01-15T03:22:54.252Z,52.31
2019-01-15T03:25:23.636Z,52.45
2019-01-15T03:27:53.033Z,52.35
2019-01-15T03:30:24.610Z,52.56
2019-01-15T03:32:53.971Z,52.13
2019-01-15T03:35:23.423Z,51.62
2019-01-15T03:37:52.786Z,51.77
2019-01-15T03:40:24.687Z,51.92
2019-01-15T03:42:54.053Z,51.85
2019-01-15T03:45:23.398Z,51.75
2019-01-15T03:47:52.761Z,51.96
2019-01-15T03:50:22.122Z,51.58
2019-01-15T03:52:51.567Z,51.76
2019-01-15T03:55:20.981Z,52.18
2019-01-15T03:57:50.362Z,52.39
2019-01-15T04:00:21.893Z,52.66
2019-01-15T04:02:51.346Z,52.79
2019-01-15T04:05:20.782Z,52.85
2019-01-15T04:07:54.341Z,52.85
2019-01-15T04:10:23.688Z,52.95
2019-01-15T04:12:55.305Z,53.39
2019-01-15T04:15:24.644Z,53.83
2019-01-15T04:17:53.976Z,54.25
2019-01-15T04:20:23.329Z,54.35
2019-01-15T04:22:52.781Z,54.82
2019-01-15T04:25:22.251Z,55.16
2019-01-15T04:27:51.651Z,55.33
2019-01-15T04:30:22.835Z,55.59
2019-01-15T04:32:52.199Z,56.04
2019-01-15T04:35:21.616Z,56.09
2019-01-15T04:37:51.006Z,56.24
2019-01-15T04:40:23.831Z,56.54
2019-01-15T04:42:53.276Z,56.97
2019-01-15T04:45:24.022Z,57.12
2019-01-15T04:47:53.633Z,57.50
2019-01-15T04:50:23.078Z,57.82
2019-01-15T04:53:00.346Z,58.03
2019-01-15T04:55:29.720Z,58.25
2019-01-15T04:57:59.115Z,58.60
2019-01-15T05:00:28.575Z,58.62
2019-01-15T05:03:01.651Z,59.09
2019-01-15T05:05:31.043Z,59.54
2019-01-15T05:08:02.293Z,59.87
2019-01-15T05:10:31.637Z,60.36
2019-01-15T05:13:01.034Z,60.91
2019-01-15T05:15:30.512Z,61.12
2019-01-15T05:17:59.864Z,61.46
2019-01-15T05:20:29.218Z,61.68
2019-01-15T05:22:58.646Z,61.66
2019-01-15T05:25:27.973Z,61.77
2019-01-15T05:27:57.365Z,61.96
2019-01-15T05:30:28.903Z,62.18
2019-01-15T05:32:58.296Z,62.60
2019-01-15T05:35:27.663Z,63.32
2019-01-15T05:37:57.005Z,63.59
2019-01-15T05:40:26.377Z,64.59
2019-01-15T05:42:55.847Z,66.25
2019-01-15T05:45:36.990Z,68.07
2019-01-15T05:48:14.007Z,70.62
2019-01-15T05:50:47.916Z,74.84
2019-01-15T05:53:17.292Z,77.95
2019-01-15T05:55:46.684Z,79.61
2019-01-15T05:58:16.089Z,78.17
2019-01-15T06:00:45.563Z,75.90
2019-01-15T06:03:14.976Z,73.86
2019-01-15T06:05:44.377Z,72.86
2019-01-15T06:08:13.732Z,72.47
2019-01-15T06:10:43.095Z,72.55
2019-01-15T06:13:12.485Z,71.93
2019-01-15T06:15:41.880Z,71.54
2019-01-15T06:18:11.249Z,71.74
2019-01-15T06:20:40.570Z,71.60
2019-01-15T06:23:09.924Z,72.42
2019-01-15T06:25:39.386Z,73.75
2019-01-15T06:28:08.770Z,74.27
2019-01-15T06:30:38.135Z,75.00
2019-01-15T06:33:07.683Z,75.12
2019-01-15T06:35:37.101Z,75.27
2019-01-15T06:38:06.889Z,75.35
2019-01-15T06:40:36.228Z,75.27
2019-01-15T06:43:05.622Z,75.31
2019-01-15T06:45:35.100Z,75.18
2019-01-15T06:48:04.944Z,74.88
2019-01-15T06:50:34.278Z,74.43
2019-01-15T06:53:03.680Z,73.85
2019-01-15T06:55:33.017Z,73.08
2019-01-15T06:58:02.367Z,72.50
2019-01-15T07:00:31.776Z,71.75
2019-01-15T07:03:01.672Z,71.57
2019-01-15T07:05:31.042Z,71.20
2019-01-15T07:08:00.419Z,70.58
2019-01-15T07:10:32.393Z,70.40
2019-01-15T07:13:01.748Z,70.21
2019-01-15T07:15:31.244Z,69.61
2019-01-15T07:18:00.606Z,70.03
2019-01-15T07:20:30.255Z,71.08
2019-01-15T07:22:59.769Z,72.41
2019-01-15T07:25:29.920Z,74.65
2019-01-15T07:27:59.925Z,75.88
2019-01-15T07:30:33.291Z,76.93
2019-01-15T07:33:02.734Z,78.53
2019-01-15T07:35:32.138Z,79.67
2019-01-15T07:38:01.513Z,80.65
2019-01-15T07:40:30.875Z,80.95
2019-01-15T07:43:00.229Z,81.74
2019-01-15T07:45:29.720Z,82.65
2019-01-15T07:47:59.129Z,82.29
2019-01-15T07:50:28.486Z,82.97
2019-01-15T07:52:57.876Z,82.72
2019-01-15T07:55:27.302Z,81.87
2019-01-15T07:57:57.785Z,82.00
2019-01-15T08:00:27.388Z,81.71
2019-01-15T08:02:56.710Z,79.64
2019-01-15T08:05:26.199Z,78.50
2019-01-15T08:07:55.647Z,76.48
2019-01-15T08:10:25.012Z,75.92
2019-01-15T08:12:54.396Z,75.05
2019-01-15T08:15:24.934Z,74.56
2019-01-15T08:17:54.537Z,73.50
2019-01-15T08:20:23.912Z,73.23
2019-01-15T08:22:53.409Z,72.64
2019-01-15T08:25:23.290Z,72.50
2019-01-15T08:27:52.685Z,71.41
2019-01-15T08:30:27.919Z,72.29
2019-01-15T08:32:57.385Z,72.04
2019-01-15T08:35:26.793Z,71.70
2019-01-15T08:37:58.225Z,71.84
2019-01-15T08:40:27.696Z,72.16
2019-01-15T08:42:58.879Z,72.18
2019-01-15T08:45:28.225Z,71.50
2019-01-15T08:48:08.664Z,71.71
2019-01-15T08:50:38.246Z,71.34
2019-01-15T08:53:07.669Z,70.83
2019-01-15T08:55:37.014Z,70.27
2019-01-15T08:58:06.396Z,70.25
2019-01-15T09:00:35.776Z,69.74
2019-01-15T09:03:05.387Z,69.12
2019-01-15T09:05:34.776Z,69.42
2019-01-15T09:08:04.246Z,69.03
2019-01-15T09:10:33.641Z,68.57
2019-01-15T09:13:03.212Z,68.23
2019-01-15T09:15:32.591Z,67.46
2019-01-15T09:18:02.092Z,67.39
2019-01-15T09:20:31.425Z,67.25
2019-01-15T09:23:00.835Z,65.67
2019-01-15T09:25:30.423Z,64.93
2019-01-15T09:27:59.847Z,64.53
2019-01-15T09:30:29.263Z,62.76
2019-01-15T09:32:59.319Z,62.46
2019-01-15T09:35:28.751Z,62.60
2019-01-15T09:37:58.322Z,62.85
2019-01-15T09:40:27.661Z,61.90
2019-01-15T09:42:57.047Z,61.63
2019-01-15T09:45:26.573Z,61.92
2019-01-15T09:48:09.922Z,60.76
2019-01-15T09:50:39.320Z,60.75
2019-01-15T09:53:08.720Z,61.34
2019-01-15T09:55:38.174Z,60.23
2019-01-15T09:58:08.007Z,61.10
2019-01-15T10:00:37.374Z,60.17
2019-01-15T10:03:06.760Z,60.30
2019-01-15T10:05:36.278Z,60.16
2019-01-15T10:08:05.878Z,60.09
2019-01-15T10:10:35.859Z,59.38
2019-01-15T10:13:05.653Z,59.13
2019-01-15T10:15:35.008Z,57.75
2019-01-15T10:18:04.743Z,57.46
2019-01-15T10:20:34.202Z,55.87
2019-01-15T10:23:03.661Z,55.83
2019-01-15T10:25:33.786Z,55.27
2019-01-15T10:28:03.241Z,55.98
2019-01-15T10:31:16.892Z,56.61
2019-01-15T10:33:54.133Z,56.79
2019-01-15T10:36:21.721Z,56.73
2019-01-15T10:38:51.128Z,55.35
2019-01-15T10:41:20.594Z,55.55
2019-01-15T10:43:49.980Z,55.38
2019-01-15T10:46:21.429Z,55.84
2019-01-15T10:48:50.434Z,55.97
2019-01-15T10:51:19.848Z,55.22
2019-01-15T10:53:49.364Z,55.74
2019-01-15T10:56:18.703Z,55.28
2019-01-15T10:58:48.085Z,54.10
2019-01-15T11:01:17.513Z,55.03
2019-01-15T11:03:46.948Z,54.74
2019-01-15T11:06:16.361Z,54.33
2019-01-15T11:08:45.711Z,54.18
2019-01-15T11:11:15.094Z,54.04
2019-01-15T11:13:44.528Z,54.14
2019-01-15T11:16:13.939Z,55.22
2019-01-15T11:18:43.343Z,54.00
2019-01-15T11:21:12.733Z,53.32
2019-01-15T11:23:42.144Z,52.33
2019-01-15T11:26:11.512Z,52.80
2019-01-15T11:28:40.920Z,52.48
2019-01-15T11:31:10.510Z,52.47
2019-01-15T11:33:39.864Z,52.87
2019-01-15T11:36:09.189Z,53.44
2019-01-15T11:38:38.610Z,53.07
2019-01-15T11:41:08.142Z,53.41
2019-01-15T11:43:39.026Z,53.07
2019-01-15T11:46:08.593Z,53.01
2019-01-15T11:48:37.948Z,52.95
2019-01-15T11:51:07.329Z,52.87
2019-01-15T11:53:36.814Z,51.90
2019-01-15T11:56:06.417Z,53.01
2019-01-15T11:58:35.985Z,51.91
2019-01-15T12:01:30.429Z,50.47
2019-01-15T12:04:17.741Z,50.63
2019-01-15T12:07:12.469Z,51.42
2019-01-15T12:09:57.952Z,52.13
2019-01-15T12:12:49.491Z,51.30
2019-01-15T12:15:37.199Z,52.65
2019-01-15T12:18:21.960Z,52.11
2019-01-15T12:21:10.388Z,52.03
2019-01-15T12:24:01.499Z,52.85
2019-01-15T12:26:49.795Z,52.97
2019-01-15T12:29:34.599Z,51.54
2019-01-15T12:32:35.286Z,51.59
2019-01-15T12:35:23.285Z,51.76
2019-01-15T12:38:06.723Z,52.71
2019-01-15T12:40:53.641Z,53.00
2019-01-15T12:43:37.570Z,52.33
2019-01-15T12:46:35.789Z,51.87
2019-01-15T12:49:23.061Z,51.93
2019-01-15T12:52:11.395Z,51.59
2019-01-15T12:55:12.088Z,51.60
2019-01-15T12:57:59.585Z,51.02
2019-01-15T13:00:47.948Z,51.05
2019-01-15T13:03:36.257Z,50.74
2019-01-15T13:06:24.103Z,51.91
2019-01-15T13:09:20.831Z,51.64
2019-01-15T13:12:06.817Z,51.81
2019-01-15T13:14:57.970Z,52.07
2019-01-15T13:17:58.625Z,52.47
2019-01-15T13:21:05.133Z,52.31
2019-01-15T13:23:59.237Z,51.91
2019-01-15T13:26:50.540Z,51.83
2019-01-15T13:29:37.836Z,51.81
2019-01-15T13:32:32.348Z,52.47
2019-01-15T13:35:36.080Z,52.76
2019-01-15T13:38:27.551Z,52.03
2019-01-15T13:41:14.665Z,52.68
2019-01-15T13:44:18.329Z,51.57
2019-01-15T13:47:05.486Z,51.47
2019-01-15T13:49:56.665Z,51.29
2019-01-15T13:52:44.958Z,51.90
2019-01-15T13:55:33.743Z,52.25
2019-01-15T13:58:22.017Z,51.53
2019-01-15T14:01:13.124Z,50.80
2019-01-15T14:04:07.244Z,50.20
2019-01-15T14:06:54.351Z,50.37
2019-01-15T14:09:57.983Z,51.09
2019-01-15T14:12:49.250Z,51.10
2019-01-15T14:15:48.931Z,52.10
2019-01-15T14:18:49.716Z,52.25
2019-01-15T14:21:36.956Z,51.62
2019-01-15T14:24:28.086Z,52.94
2019-01-15T14:27:16.395Z,54.24
2019-01-15T14:30:07.709Z,54.09
2019-01-15T14:32:56.778Z,54.86
2019-01-15T14:35:50.843Z,55.03
2019-01-15T14:38:39.262Z,54.52
2019-01-15T14:41:24.523Z,54.06
2019-01-15T14:44:25.360Z,54.62
2019-01-15T14:47:22.529Z,55.37
2019-01-15T14:50:09.708Z,55.51
2019-01-15T14:53:00.770Z,56.36
2019-01-15T14:55:58.199Z,56.61
2019-01-15T14:58:50.454Z,56.61
2019-01-15T15:01:38.716Z,56.87
2019-01-15T15:04:22.851Z,57.43
2019-01-15T15:07:10.238Z,57.90
2019-01-15T15:10:04.365Z,58.40
2019-01-15T15:12:55.479Z,58.65
2019-01-15T15:15:37.288Z,58.96
2019-01-15T15:18:37.857Z,59.19
2019-01-15T15:21:38.166Z,59.34
2019-01-15T15:24:29.596Z,59.60
2019-01-15T15:27:15.246Z,60.03
2019-01-15T15:30:09.524Z,60.22
2019-01-15T15:33:16.389Z,60.30
2019-01-15T15:36:04.650Z,60.15
2019-01-15T15:38:55.754Z,60.14
2019-01-15T15:41:36.681Z,60.36
2019-01-15T15:44:43.665Z,60.72
2019-01-15T15:47:31.088Z,60.52
2019-01-15T15:50:28.505Z,60.95
2019-01-15T15:53:16.037Z,61.12
2019-01-15T15:56:14.643Z,61.42
2019-01-15T15:59:06.037Z,61.52
2019-01-15T16:01:54.331Z,61.85
2019-01-15T16:04:45.900Z,62.00
2019-01-15T16:07:33.284Z,62.36
2019-01-15T16:10:21.659Z,62.24
2019-01-15T16:13:25.437Z,62.08
2019-01-15T16:16:19.584Z,62.34
2019-01-15T16:19:06.505Z,62.25
2019-01-15T16:21:58.071Z,61.93
2019-01-15T16:24:43.268Z,62.28
2019-01-15T16:27:30.427Z,62.27
2019-01-15T16:30:18.784Z,62.22
2019-01-15T16:32:59.583Z,62.11
2019-01-15T16:35:46.157Z,62.05
2019-01-15T16:38:32.978Z,62.22
2019-01-15T16:41:27.336Z,62.08
2019-01-15T16:44:14.147Z,62.17
2019-01-15T16:47:01.143Z,61.98
2019-01-15T16:49:41.844Z,62.44
2019-01-15T16:52:33.184Z,62.28
2019-01-15T16:55:36.841Z,62.09
2019-01-15T16:58:24.215Z,62.09
2019-01-15T17:01:11.575Z,62.19
2019-01-15T17:03:58.806Z,61.98
2019-01-15T17:06:56.147Z,62.42
2019-01-15T17:09:47.434Z,62.52
2019-01-15T17:12:50.948Z,62.17
2019-01-15T17:15:49.277Z,62.26
2019-01-15T17:18:31.532Z,61.99
2019-01-15T17:21:31.775Z,62.27
2019-01-15T17:24:32.235Z,62.32
2019-01-15T17:27:19.526Z,62.46
2019-01-15T17:30:07.102Z,62.38
2019-01-15T17:33:04.679Z,62.67
2019-01-15T17:35:56.216Z,62.76
2019-01-15T17:38:53.265Z,62.64
2019-01-15T17:41:40.486Z,62.56
2019-01-15T17:44:19.648Z,62.79
2019-01-15T17:47:05.094Z,62.83
2019-01-15T17:49:52.420Z,62.98
2019-01-15T17:52:52.763Z,62.99
2019-01-15T17:55:40.139Z,63.24
2019-01-15T17:58:34.710Z,63.43
2019-01-15T18:01:16.900Z,63.81
2019-01-15T18:04:05.207Z,63.93
2019-01-15T18:06:52.006Z,64.15
2019-01-15T18:09:40.315Z,64.35
2019-01-15T18:12:31.700Z,64.48
2019-01-15T18:15:19.976Z,64.85
2019-01-15T18:18:06.908Z,64.97
2019-01-15T18:20:54.350Z,65.16
2019-01-15T18:23:41.441Z,65.34
2019-01-15T18:26:39.428Z,65.28
2019-01-15T18:29:26.302Z,65.57
2019-01-15T18:32:12.272Z,65.73
2019-01-15T18:34:54.299Z,65.96
2019-01-15T18:37:48.439Z,65.97
2019-01-15T18:40:43.680Z,66.06
2019-01-15T18:43:30.539Z,66.20
2019-01-15T18:46:21.683Z,65.89
2019-01-15T18:49:22.285Z,65.97
2019-01-15T18:52:09.590Z,66.24
2019-01-15T18:55:15.654Z,66.36
2019-01-15T18:58:02.923Z,66.38
2019-01-15T19:00:53.670Z,66.56
2019-01-15T19:03:48.086Z,66.70
2019-01-15T19:06:34.546Z,66.68
2019-01-15T19:09:24.276Z,66.94
2019-01-15T19:12:11.443Z,66.93
2019-01-15T19:15:12.239Z,67.25
2019-01-15T19:17:58.778Z,67.81
2019-01-15T19:20:53.474Z,68.19
2019-01-15T19:23:46.230Z,68.38
2019-01-15T19:26:33.523Z,68.80
2019-01-15T19:29:40.203Z,69.05
2019-01-15T19:32:28.465Z,69.20
2019-01-15T19:35:23.191Z,69.44
2019-01-15T19:38:17.633Z,69.52
2019-01-15T19:41:15.307Z,69.62
2019-01-15T19:44:02.276Z,69.88
2019-01-15T19:46:50.004Z,69.99
2019-01-15T19:49:37.183Z,69.93
2019-01-15T19:52:24.439Z,69.93
2019-01-15T19:55:12.135Z,69.95
2019-01-15T19:58:05.814Z,69.93
2019-01-15T20:00:54.132Z,70.00
2019-01-15T20:03:57.560Z,70.08
2019-01-15T20:06:54.586Z,69.88
2019-01-15T20:09:39.964Z,69.98
2019-01-15T20:12:27.128Z,70.29
2019-01-15T20:15:08.640Z,70.11
2019-01-15T20:17:51.578Z,69.97
2019-01-15T20:20:38.919Z,70.16
2019-01-15T20:23:25.871Z,70.44
2019-01-15T20:26:23.331Z,70.54
2019-01-15T20:29:17.449Z,70.74
2019-01-15T20:32:02.744Z,70.72
2019-01-15T20:34:49.787Z,70.67
2019-01-15T20:37:41.015Z,70.43
2019-01-15T20:40:34.083Z,70.63
2019-01-15T20:43:22.394Z,70.95
2019-01-15T20:46:10.701Z,71.23
2019-01-15T20:48:57.675Z,71.44
2019-01-15T20:51:54.893Z,71.43
2019-01-15T20:54:52.519Z,71.42
2019-01-15T20:57:47.206Z,71.33
2019-01-15T21:00:34.392Z,71.80
2019-01-15T21:03:22.728Z,71.25
2019-01-15T21:06:14.077Z,71.05
2019-01-15T21:09:01.467Z,71.24
2019-01-15T21:12:03.150Z,71.12
2019-01-15T21:15:10.114Z,70.91
2019-01-15T21:18:01.388Z,70.76
2019-01-15T21:20:48.338Z,70.64
2019-01-15T21:23:54.919Z,70.46
2019-01-15T21:26:48.956Z,70.33
2019-01-15T21:29:55.682Z,70.23
2019-01-15T21:32:54.006Z,69.99
2019-01-15T21:35:57.555Z,69.85
2019-01-15T21:38:44.652Z,69.63
2019-01-15T21:41:30.869Z,69.58
2019-01-15T21:44:15.386Z,69.26
2019-01-15T21:47:16.009Z,68.76
2019-01-15T21:49:57.931Z,68.60
2019-01-15T21:52:47.920Z,68.46
2019-01-15T21:55:36.217Z,68.31
2019-01-15T21:58:13.126Z,68.02
2019-01-15T22:01:00.006Z,67.94
2019-01-15T22:03:54.716Z,67.64
2019-01-15T22:06:51.443Z,67.80
2019-01-15T22:09:38.731Z,67.49
2019-01-15T22:12:26.995Z,67.35
2019-01-15T22:15:14.824Z,67.36
2019-01-15T22:18:02.021Z,67.39
2019-01-15T22:20:59.150Z,67.47
2019-01-15T22:23:46.173Z,67.35
2019-01-15T22:26:42.190Z,67.20
2019-01-15T22:29:48.646Z,67.26
2019-01-15T22:32:42.857Z,67.32
2019-01-15T22:35:34.193Z,67.63
2019-01-15T22:38:31.520Z,67.81
2019-01-15T22:41:08.828Z,68.24
2019-01-15T22:43:56.062Z,68.57
2019-01-15T22:46:43.301Z,68.73
2019-01-15T22:49:31.579Z,68.97
2019-01-15T22:52:19.898Z,69.05
2019-01-15T22:55:20.509Z,68.90
2019-01-15T22:57:57.344Z,68.86
2019-01-15T23:01:01.735Z,68.75
2019-01-15T23:03:44.010Z,68.71
2019-01-15T23:06:32.331Z,68.95
2019-01-15T23:09:20.694Z,69.02
2019-01-15T23:12:05.786Z,69.14
2019-01-15T23:14:48.902Z,69.53
2019-01-15T23:17:27.529Z,69.70
2019-01-15T23:20:10.172Z,69.81
2019-01-15T23:22:58.195Z,70.04
2019-01-15T23:25:55.660Z,70.34
2019-01-15T23:28:59.104Z,70.68
2019-01-15T23:31:42.934Z,71.09
2019-01-15T23:34:29.973Z,71.41
2019-01-15T23:37:27.386Z,71.60
2019-01-15T23:40:27.622Z,71.79
2019-01-15T23:43:17.673Z,71.99
2019-01-15T23:46:24.066Z,72.01
2019-01-15T23:49:27.473Z,71.86
2019-01-15T23:52:34.128Z,71.66
2019-01-15T23:55:20.979Z,71.50
2019-01-15T23:58:02.391Z,71.36
